Time;durP1;ratioP1;P1;durP2;ratioP2;P2;SDS_P1;SDS_P2;PMS_P1;PMS_P2;Temp;Humidity;BMP_temperature;BMP_pressure;BME280_temperature;BME280_humidity;BME280_pressure;Samples;Min_cycle;Max_cycle;Signal;HPM_P1;HPM_P2
2021/03/05 14:14:03;;;;;;;36.72;15.55;;;2.90;87.10;;;;;;5112355;27;20369;-84
2021/03/05 14:16:29;;;;;;;42.80;18.50;;;2.80;88.10;;;;;;5110870;28;20078;-83
2021/03/05 14:18:55;;;;;;;40.42;19.60;;;2.80;88.70;;;;;;5111849;28;20020;-84
2021/03/05 14:21:20;;;;;;;42.58;20.17;;;2.80;88.60;;;;;;5110509;28;20111;-85
2021/03/05 14:23:46;;;;;;;39.90;17.80;;;2.80;88.90;;;;;;5110664;28;20053;-86
2021/03/05 14:26:13;;;;;;;42.40;20.13;;;2.80;89.80;;;;;;5110493;28;20035;-84
2021/03/05 14:28:38;;;;;;;42.33;20.00;;;2.80;89.70;;;;;;5110446;28;20051;-84
2021/03/05 14:31:04;;;;;;;43.25;20.30;;;2.90;90.10;;;;;;5110609;28;20470;-85
2021/03/05 14:33:30;;;;;;;40.90;19.33;;;2.90;89.80;;;;;;5110421;28;20048;-88
2021/03/05 14:35:56;;;;;;;36.92;17.05;;;2.80;90.20;;;;;;5109657;28;20054;-85
2021/03/05 14:38:22;;;;;;;43.65;19.50;;;2.80;90.30;;;;;;5109884;28;20065;-84
2021/03/05 14:40:48;;;;;;;46.08;20.02;;;2.90;90.40;;;;;;5109308;28;20031;-82
2021/03/05 14:43:14;;;;;;;40.53;19.38;;;2.80;90.20;;;;;;5107932;28;20024;-83
2021/03/05 14:45:40;;;;;;;39.45;19.25;;;2.80;89.30;;;;;;5109453;28;20133;-84
2021/03/05 14:48:06;;;;;;;43.70;19.98;;;2.70;88.50;;;;;;5107949;28;20493;-85
2021/03/05 14:50:32;;;;;;;37.30;16.67;;;2.70;89.20;;;;;;5108020;28;20062;-84
2021/03/05 14:52:57;;;;;;;34.70;16.38;;;2.70;89.40;;;;;;5107794;28;20117;-84
2021/03/05 14:55:23;;;;;;;34.25;17.02;;;2.80;89.60;;;;;;5109242;28;20457;-83
2021/03/05 14:57:49;;;;;;;31.98;16.55;;;2.80;88.50;;;;;;5109234;28;20028;-88
2021/03/05 15:00:16;;;;;;;27.60;14.05;;;2.70;87.30;;;;;;5108651;28;20051;-87
2021/03/05 15:02:41;;;;;;;27.70;14.95;;;2.80;88.60;;;;;;5108544;28;20374;-88
2021/03/05 15:05:08;;;;;;;30.10;15.90;;;2.80;87.70;;;;;;5108582;28;20114;-89
2021/03/05 15:07:34;;;;;;;32.65;16.55;;;2.80;88.40;;;;;;5108327;28;20075;-93
2021/03/05 15:09:59;;;;;;;39.17;17.88;;;2.80;86.80;;;;;;5108772;28;20048;-89
2021/03/05 15:12:25;;;;;;;35.42;17.15;;;2.70;87.70;;;;;;5108583;28;20822;-90
2021/03/05 15:14:51;;;;;;;38.85;17.65;;;2.80;87.20;;;;;;5109833;28;20020;-88
2021/03/05 15:17:17;;;;;;;32.25;16.05;;;2.70;87.60;;;;;;5108272;28;20055;-88
2021/03/05 15:19:42;;;;;;;34.90;16.77;;;2.70;88.40;;;;;;5108638;28;20447;-88
2021/03/05 15:22:08;;;;;;;32.47;15.20;;;2.80;88.40;;;;;;5108105;28;20081;-89
2021/03/05 15:24:34;;;;;;;28.65;14.60;;;2.80;89.00;;;;;;5099479;28;20024;-88
2021/03/05 15:27:00;;;;;;;35.15;17.70;;;2.90;88.90;;;;;;5095530;28;20031;-89
2021/03/05 15:29:26;;;;;;;41.65;18.92;;;2.90;88.80;;;;;;5094695;28;20116;-88
2021/03/05 15:31:53;;;;;;;36.75;18.50;;;2.90;88.20;;;;;;5094272;28;20114;-90
2021/03/05 15:34:18;;;;;;;41.83;19.67;;;2.90;88.40;;;;;;5094797;28;20024;-88
2021/03/05 15:36:44;;;;;;;34.50;17.70;;;2.90;88.50;;;;;;5094338;28;20025;-88
2021/03/05 15:39:10;;;;;;;38.90;18.50;;;2.80;88.50;;;;;;5094465;28;20031;-88
2021/03/05 15:41:35;;;;;;;43.78;19.92;;;2.80;88.60;;;;;;5094493;28;20027;-88
2021/03/05 15:44:01;;;;;;;41.92;19.52;;;2.80;88.40;;;;;;5095828;28;20020;-88
2021/03/05 15:46:27;;;;;;;43.78;20.83;;;2.80;88.50;;;;;;5094909;28;20028;-88
2021/03/05 15:48:54;;;;;;;42.17;19.50;;;2.80;88.40;;;;;;5094012;28;20489;-88
2021/03/05 15:51:20;;;;;;;48.20;20.85;;;2.80;88.80;;;;;;5095260;28;20039;-88
2021/03/05 15:53:46;;;;;;;52.83;23.63;;;2.80;89.10;;;;;;5093988;28;20032;-88
2021/03/05 15:56:12;;;;;;;58.42;24.05;;;2.80;89.00;;;;;;5094228;28;20028;-88
2021/03/05 15:58:41;;;;;;;47.72;20.85;;;2.70;89.10;;;;;;5093248;28;20035;-90
2021/03/05 16:01:07;;;;;;;51.28;24.48;;;2.70;89.50;;;;;;5093060;28;20016;-89
2021/03/05 16:03:43;;;;;;;53.53;23.30;;;2.80;89.40;;;;;;5092298;28;20108;-88
2021/03/05 16:09:23;;;;;;;59.17;26.35;;;2.80;89.60;;;;;;5074219;28;20077;-88
2021/03/05 16:11:49;;;;;;;66.60;27.02;;;2.70;89.60;;;;;;5072196;28;20024;-88
2021/03/05 16:14:17;;;;;;;54.08;25.23;;;2.70;89.60;;;;;;5072166;28;20028;-89
2021/03/05 16:16:43;;;;;;;54.03;24.98;;;2.60;90.00;;;;;;5072147;28;20031;-89
2021/03/05 16:19:08;;;;;;;58.28;26.20;;;2.60;90.10;;;;;;5072601;28;20028;-89
2021/03/05 16:21:34;;;;;;;56.42;25.02;;;2.60;90.30;;;;;;5074397;28;20024;-86
2021/03/05 16:24:01;;;;;;;55.20;22.95;;;2.60;90.30;;;;;;5075037;28;20024;-86
2021/03/05 16:26:27;;;;;;;51.22;22.60;;;2.60;90.30;;;;;;5074172;28;20056;-85
2021/03/05 16:28:52;;;;;;;60.22;27.50;;;2.60;90.40;;;;;;5075195;28;20056;-85
2021/03/05 16:31:25;;;;;;;54.67;24.50;;;2.60;90.40;;;;;;5073977;28;20382;-86
2021/03/05 16:33:51;;;;;;;60.65;26.40;;;2.50;90.30;;;;;;5074631;28;20082;-86
2021/03/05 16:36:18;;;;;;;58.05;26.25;;;2.50;90.20;;;;;;5073266;28;20454;-86
2021/03/05 16:38:44;;;;;;;54.25;25.58;;;2.50;90.30;;;;;;5074628;28;20031;-86
2021/03/05 16:41:11;;;;;;;48.30;23.50;;;2.50;90.10;;;;;;5073928;28;20414;-85
2021/03/05 16:43:37;;;;;;;50.03;23.92;;;2.60;90.20;;;;;;5073686;28;20029;-84
2021/03/05 16:46:03;;;;;;;41.90;21.02;;;2.50;89.80;;;;;;5075002;28;20356;-86
2021/03/05 16:48:28;;;;;;;41.03;20.35;;;2.50;89.90;;;;;;5073465;28;20025;-85
2021/03/05 16:50:54;;;;;;;40.65;19.77;;;2.50;89.50;;;;;;5073689;28;20028;-85
2021/03/05 16:53:20;;;;;;;43.10;20.33;;;2.50;89.70;;;;;;5074722;28;20028;-85
2021/03/05 16:55:46;;;;;;;43.78;20.88;;;2.50;89.70;;;;;;5073567;28;20405;-86
2021/03/05 16:58:12;;;;;;;42.83;20.88;;;2.50;89.80;;;;;;5073653;28;20031;-86
2021/03/05 17:00:38;;;;;;;43.85;21.60;;;2.50;89.60;;;;;;5074900;28;20025;-85
2021/03/05 17:03:06;;;;;;;43.38;21.80;;;2.50;89.70;;;;;;5090692;28;20032;-85
2021/03/05 17:05:31;;;;;;;39.50;19.38;;;2.50;89.90;;;;;;5073567;28;20035;-85
2021/03/05 17:07:57;;;;;;;43.53;21.60;;;2.60;90.00;;;;;;5074558;28;20382;-86
2021/03/05 17:10:23;;;;;;;44.42;21.40;;;2.60;89.90;;;;;;5073698;28;20024;-86
2021/03/05 17:12:49;;;;;;;50.80;23.80;;;2.60;89.90;;;;;;5089843;28;20134;-86
2021/03/05 17:15:15;;;;;;;70.40;32.58;;;2.60;89.50;;;;;;5073503;28;20025;-85
2021/03/05 17:17:42;;;;;;;69.40;27.30;;;2.50;89.50;;;;;;5073415;28;20052;-85
2021/03/05 17:20:10;;;;;;;96.55;36.88;;;2.50;89.90;;;;;;5073374;28;20031;-86
2021/03/05 17:22:36;;;;;;;84.88;37.17;;;2.50;90.00;;;;;;5072998;28;20055;-86
2021/03/05 17:25:05;;;;;;;110.18;46.47;;;2.50;90.00;;;;;;5074271;28;20021;-86
2021/03/05 17:27:31;;;;;;;86.43;41.00;;;2.50;90.20;;;;;;5073205;28;20484;-86
2021/03/05 17:29:57;;;;;;;86.22;41.00;;;2.60;90.20;;;;;;5072872;28;20032;-86
2021/03/05 17:32:23;;;;;;;72.10;34.05;;;2.60;90.20;;;;;;5073214;28;20035;-86
2021/03/05 17:34:49;;;;;;;75.68;35.97;;;2.60;90.20;;;;;;5073042;28;20043;-86
2021/03/05 17:37:14;;;;;;;68.05;31.75;;;2.60;90.30;;;;;;5072919;28;20032;-83
2021/03/05 17:39:40;;;;;;;70.30;29.70;;;2.50;90.60;;;;;;5073550;28;20382;-86
2021/03/05 17:42:06;;;;;;;57.95;26.85;;;2.50;90.70;;;;;;5073736;28;20146;-85
2021/03/05 17:44:32;;;;;;;70.15;29.48;;;2.50;90.60;;;;;;5072558;28;20074;-85
2021/03/05 17:46:57;;;;;;;67.18;29.45;;;2.50;90.80;;;;;;5072271;28;20545;-85
2021/03/05 17:49:23;;;;;;;58.53;25.05;;;2.50;90.90;;;;;;5072277;28;20097;-85
2021/03/05 17:51:49;;;;;;;58.78;27.98;;;2.50;90.90;;;;;;5073113;28;20367;-86
2021/03/05 17:54:15;;;;;;;62.20;27.35;;;2.40;90.80;;;;;;5072853;28;20486;-85
2021/03/05 17:56:41;;;;;;;54.45;25.83;;;2.50;90.70;;;;;;5072641;28;20474;-86
2021/03/05 17:59:07;;;;;;;60.20;27.63;;;2.50;90.80;;;;;;5073609;28;20021;-85
2021/03/05 18:01:33;;;;;;;61.50;27.98;;;2.40;90.80;;;;;;5072011;28;20425;-85
2021/03/05 18:04:00;;;;;;;69.43;31.02;;;2.50;90.80;;;;;;5073880;28;20028;-86
2021/03/05 18:06:27;;;;;;;55.55;24.45;;;2.50;90.80;;;;;;5072855;28;20543;-85
2021/03/05 18:08:53;;;;;;;64.70;30.52;;;2.50;90.70;;;;;;5072019;28;20078;-86
2021/03/05 18:11:20;;;;;;;52.17;25.88;;;2.50;90.80;;;;;;5072544;28;20059;-87
2021/03/05 18:13:46;;;;;;;49.10;23.83;;;2.50;90.90;;;;;;5072237;28;20139;-85
2021/03/05 18:16:12;;;;;;;56.13;25.83;;;2.50;90.90;;;;;;5073514;28;20467;-88
2021/03/05 18:18:38;;;;;;;58.22;28.05;;;2.50;90.90;;;;;;5073832;28;20028;-85
2021/03/05 18:21:07;;;;;;;66.32;30.35;;;2.50;90.90;;;;;;5078988;28;20517;-90
2021/03/05 18:23:33;;;;;;;53.30;24.77;;;2.40;90.90;;;;;;5073509;28;20048;-90
2021/03/05 18:25:58;;;;;;;54.42;26.17;;;2.40;90.80;;;;;;5073737;28;20025;-88
2021/03/05 18:28:24;;;;;;;62.67;29.38;;;2.40;90.70;;;;;;5073692;28;20035;-86
2021/03/05 18:30:50;;;;;;;68.07;31.85;;;2.30;90.90;;;;;;5073386;28;20387;-85
2021/03/05 18:33:15;;;;;;;76.63;35.55;;;2.40;90.80;;;;;;5072081;28;20041;-84
2021/03/05 18:35:41;;;;;;;62.78;29.30;;;2.30;91.10;;;;;;5072160;28;20052;-85
2021/03/05 18:38:07;;;;;;;60.55;25.42;;;2.20;91.10;;;;;;5089056;28;20020;-85
2021/03/05 18:40:35;;;;;;;49.25;23.60;;;2.30;91.10;;;;;;5089243;28;20111;-86
2021/03/05 18:43:01;;;;;;;49.33;24.38;;;2.30;90.90;;;;;;5073373;28;20039;-86
2021/03/05 18:45:27;;;;;;;46.13;21.92;;;2.30;90.90;;;;;;5089214;28;20025;-85
2021/03/05 18:47:52;;;;;;;46.25;22.98;;;2.40;90.90;;;;;;5089135;28;20433;-85
2021/03/05 18:50:18;;;;;;;45.30;22.25;;;2.30;90.80;;;;;;5072288;28;20028;-85
2021/03/05 18:52:44;;;;;;;49.78;23.83;;;2.30;90.90;;;;;;5072142;28;20090;-86
2021/03/05 18:55:10;;;;;;;56.28;25.63;;;2.20;90.90;;;;;;5072384;28;20025;-88
2021/03/05 18:57:37;;;;;;;50.92;22.77;;;2.30;91.00;;;;;;5088958;28;20039;-88
2021/03/05 19:00:05;;;;;;;45.88;20.48;;;2.20;91.00;;;;;;5074623;28;20021;-87
2021/03/05 19:02:31;;;;;;;52.55;24.83;;;2.10;91.00;;;;;;5076930;28;20028;-87
2021/03/05 19:04:56;;;;;;;46.20;22.70;;;2.10;91.00;;;;;;5093148;28;20025;-88
2021/03/05 19:07:22;;;;;;;60.00;25.85;;;2.10;91.00;;;;;;5075889;28;20063;-88
2021/03/05 19:09:48;;;;;;;69.13;28.02;;;2.00;91.10;;;;;;5093010;28;20029;-87
2021/03/05 19:12:14;;;;;;;44.75;21.42;;;2.00;91.10;;;;;;5076686;28;20044;-88
2021/03/05 19:14:39;;;;;;;33.70;15.10;;;2.00;90.50;;;;;;5075755;28;20027;-88
2021/03/05 19:17:05;;;;;;;32.38;13.02;;;1.90;88.90;;;;;;5093056;28;20035;-88
2021/03/05 19:19:31;;;;;;;18.85;8.90;;;1.90;89.00;;;;;;5076904;28;20013;-87
2021/03/05 19:21:57;;;;;;;19.48;9.93;;;1.80;88.00;;;;;;5075757;28;20478;-88
2021/03/05 19:24:22;;;;;;;19.10;8.77;;;1.70;86.80;;;;;;5075599;28;20016;-87
2021/03/05 19:26:51;;;;;;;13.13;7.20;;;1.70;88.00;;;;;;5075212;28;20025;-87
2021/03/05 19:29:18;;;;;;;14.68;6.78;;;1.70;87.70;;;;;;5092405;28;20017;-87
2021/03/05 19:31:48;;;;;;;16.85;7.90;;;1.70;88.30;;;;;;5076957;28;20032;-87
2021/03/05 19:34:19;;;;;;;19.83;8.85;;;1.70;88.50;;;;;;5075836;28;20027;-87
2021/03/05 19:36:44;;;;;;;;;;;1.60;89.00;;;;;;5076081;28;20025;-86
2021/03/05 19:39:10;;;;;;;17.10;8.10;;;1.60;88.50;;;;;;5075723;28;19904;-87
2021/03/05 19:41:36;;;;;;;13.00;6.68;;;1.60;88.80;;;;;;5076718;28;20028;-87
2021/03/05 19:44:02;;;;;;;16.95;8.25;;;1.60;88.70;;;;;;5076733;28;20021;-87
2021/03/05 19:46:30;;;;;;;14.15;6.75;;;1.50;87.70;;;;;;5075368;28;20024;-86
2021/03/05 19:48:55;;;;;;;15.85;7.75;;;1.50;88.70;;;;;;5076592;28;20103;-87
2021/03/05 19:51:21;;;;;;;26.23;11.02;;;1.50;88.20;;;;;;5075622;28;20110;-87
2021/03/05 19:53:47;;;;;;;30.55;12.70;;;1.50;88.50;;;;;;5075574;28;20025;-87
2021/03/05 19:56:14;;;;;;;22.73;10.68;;;1.40;89.00;;;;;;5075517;28;20074;-88
2021/03/05 19:58:40;;;;;;;28.83;12.35;;;1.40;90.00;;;;;;5092050;28;20039;-88
2021/03/05 20:01:06;;;;;;;35.70;13.00;;;1.30;90.10;;;;;;5099677;28;20020;-87
2021/03/05 20:03:32;;;;;;;22.27;9.95;;;1.30;90.20;;;;;;5079190;28;20051;-87
2021/03/05 20:05:58;;;;;;;18.55;9.30;;;1.20;90.50;;;;;;5076331;28;20025;-87
2021/03/05 20:08:24;;;;;;;24.98;9.70;;;1.00;91.00;;;;;;5091968;28;20032;-87
2021/03/05 20:10:50;;;;;;;21.95;9.68;;;1.00;91.30;;;;;;5076214;28;20024;-88
2021/03/05 20:13:16;;;;;;;23.35;9.48;;;0.90;91.50;;;;;;5091740;28;20501;-88
2021/03/05 20:15:42;;;;;;;28.63;9.77;;;0.90;91.70;;;;;;5075143;28;20028;-88
2021/03/05 20:18:08;;;;;;;22.95;9.15;;;0.90;92.10;;;;;;5076083;28;20043;-88
2021/03/05 20:20:34;;;;;;;21.77;9.43;;;0.90;92.30;;;;;;5074940;28;20082;-87
2021/03/05 20:23:00;;;;;;;18.45;9.27;;;0.80;92.90;;;;;;5074816;28;20032;-88
2021/03/05 20:25:26;;;;;;;21.35;9.88;;;0.80;92.90;;;;;;5075883;28;20032;-88
2021/03/05 20:27:52;;;;;;;23.85;11.27;;;0.80;93.10;;;;;;5074893;28;20020;-88
2021/03/05 20:30:18;;;;;;;26.48;12.13;;;0.80;93.10;;;;;;5074770;28;20032;-88
2021/03/05 20:32:44;;;;;;;19.92;9.18;;;0.70;93.60;;;;;;5074539;28;20024;-88
2021/03/05 20:35:12;;;;;;;18.85;9.32;;;0.70;93.40;;;;;;5074770;28;20023;-88
2021/03/05 20:37:37;;;;;;;21.83;10.30;;;0.60;93.70;;;;;;5074635;28;20051;-88
2021/03/05 20:40:05;;;;;;;17.23;8.85;;;0.60;94.10;;;;;;5075908;28;20028;-88
2021/03/05 20:42:31;;;;;;;34.90;14.00;;;0.60;93.70;;;;;;5074565;28;20028;-88
2021/03/05 20:44:56;;;;;;;29.98;13.82;;;0.50;94.70;;;;;;5074319;28;20033;-88
2021/03/05 20:47:23;;;;;;;26.38;11.90;;;0.50;94.90;;;;;;5091491;28;20058;-88
2021/03/05 20:49:49;;;;;;;25.42;12.90;;;0.50;95.00;;;;;;5075577;28;20100;-88
2021/03/05 20:52:15;;;;;;;24.13;11.05;;;0.50;95.00;;;;;;5075430;28;20059;-88
2021/03/05 20:54:40;;;;;;;22.05;10.40;;;0.50;95.20;;;;;;5075579;28;20028;-88
2021/03/05 20:57:07;;;;;;;22.00;9.18;;;0.40;94.90;;;;;;5075884;28;20158;-87
2021/03/05 20:59:33;;;;;;;20.52;8.70;;;0.50;94.90;;;;;;5091056;28;20478;-88
2021/03/05 21:01:59;;;;;;;20.67;8.55;;;0.50;94.60;;;;;;5074396;28;20032;-88
2021/03/05 21:04:24;;;;;;;21.80;10.90;;;0.50;94.80;;;;;;5075459;28;20483;-88
2021/03/05 21:06:51;;;;;;;20.63;9.23;;;0.50;95.00;;;;;;5075083;28;20052;-88
2021/03/05 21:09:17;;;;;;;16.40;8.40;;;0.40;95.20;;;;;;5075019;28;20050;-88
2021/03/05 21:11:44;;;;;;;21.08;9.13;;;0.40;95.00;;;;;;5075198;28;20087;-88
2021/03/05 21:14:11;;;;;;;18.52;8.68;;;0.40;94.80;;;;;;5073994;28;20078;-88
2021/03/05 21:16:38;;;;;;;18.17;8.73;;;0.40;94.80;;;;;;5073927;28;20017;-88
2021/03/05 21:19:04;;;;;;;26.02;10.85;;;0.50;94.50;;;;;;5074133;28;20075;-88
2021/03/05 21:21:29;;;;;;;23.65;10.88;;;0.40;95.10;;;;;;5074495;28;20016;-88
2021/03/05 21:23:55;;;;;;;24.73;10.75;;;0.40;95.10;;;;;;5073876;28;20386;-88
2021/03/05 21:26:21;;;;;;;25.23;9.32;;;0.30;95.10;;;;;;5073795;28;20052;-88
2021/03/05 21:28:47;;;;;;;19.30;8.85;;;0.30;95.10;;;;;;5074944;28;20126;-88
2021/03/05 21:31:13;;;;;;;15.35;7.53;;;0.40;95.10;;;;;;5074988;28;20028;-88
2021/03/05 21:33:39;;;;;;;16.35;7.22;;;0.40;94.70;;;;;;5073763;28;20078;-87
2021/03/05 21:36:05;;;;;;;13.88;6.95;;;0.30;94.60;;;;;;5074920;28;20017;-88
2021/03/05 21:38:31;;;;;;;13.80;7.35;;;0.40;94.50;;;;;;5073206;28;20032;-88
2021/03/05 21:40:56;;;;;;;18.02;7.78;;;0.40;94.50;;;;;;5074577;28;20017;-88
2021/03/05 21:43:22;;;;;;;19.05;7.43;;;0.40;94.50;;;;;;5082114;28;20052;-87
2021/03/05 21:45:48;;;;;;;12.82;7.47;;;0.40;94.50;;;;;;5092071;28;20077;-88
2021/03/05 21:48:13;;;;;;;17.40;7.97;;;0.40;94.60;;;;;;5073492;28;20040;-88
2021/03/05 21:50:39;;;;;;;12.35;7.70;;;0.40;94.50;;;;;;5074603;28;20024;-88
2021/03/05 21:53:05;;;;;;;17.15;9.00;;;0.40;94.30;;;;;;5090170;28;20071;-88
2021/03/05 21:55:31;;;;;;;18.70;9.07;;;0.40;94.40;;;;;;5073392;28;20017;-88
2021/03/05 21:57:57;;;;;;;21.75;10.52;;;0.30;94.40;;;;;;5074551;28;20042;-88
2021/03/05 22:00:23;;;;;;;17.27;8.60;;;0.30;94.50;;;;;;5073358;28;20028;-88
2021/03/05 22:02:48;;;;;;;17.15;8.43;;;0.30;94.50;;;;;;5073273;28;20036;-88
2021/03/05 22:05:14;;;;;;;16.60;7.75;;;0.30;94.50;;;;;;5074502;28;20021;-88
2021/03/05 22:07:40;;;;;;;16.73;7.68;;;0.30;94.70;;;;;;5090267;28;20086;-87
2021/03/05 22:10:06;;;;;;;15.20;6.88;;;0.30;94.80;;;;;;5089918;28;20051;-88
2021/03/05 22:12:32;;;;;;;16.13;7.43;;;0.20;95.10;;;;;;5072811;28;20105;-88
2021/03/05 22:14:58;;;;;;;13.52;6.28;;;0.20;95.00;;;;;;5074345;28;20021;-88
2021/03/05 22:17:24;;;;;;;15.32;7.00;;;0.20;94.90;;;;;;5074238;28;20039;-88
2021/03/05 22:19:50;;;;;;;13.02;6.38;;;0.30;94.90;;;;;;5090176;28;20016;-88
2021/03/05 22:22:17;;;;;;;11.15;6.05;;;0.30;95.00;;;;;;5090025;28;20074;-88
2021/03/05 22:24:43;;;;;;;9.25;4.90;;;0.20;95.10;;;;;;5074184;28;20027;-88
2021/03/05 22:27:10;;;;;;;10.55;5.10;;;0.20;94.90;;;;;;5089790;28;20032;-88
2021/03/05 22:29:36;;;;;;;11.50;5.30;;;0.30;94.70;;;;;;5074239;28;20064;-88
2021/03/05 22:32:02;;;;;;;14.48;6.15;;;0.30;94.50;;;;;;5072836;28;20052;-88
2021/03/05 22:34:28;;;;;;;15.90;6.75;;;0.40;94.50;;;;;;5074674;28;20107;-88
2021/03/05 22:36:53;;;;;;;10.63;5.25;;;0.30;94.20;;;;;;5076983;28;20024;-88
2021/03/05 22:39:19;;;;;;;12.52;5.70;;;0.40;94.20;;;;;;5077106;28;20107;-88
2021/03/05 22:41:46;;;;;;;12.82;5.90;;;0.30;93.70;;;;;;5077086;28;20036;-88
2021/03/05 22:44:11;;;;;;;13.45;6.10;;;0.20;93.50;;;;;;5094003;28;20032;-88
2021/03/05 22:46:37;;;;;;;11.45;5.00;;;0.20;93.70;;;;;;5076895;28;20481;-88
2021/03/05 22:49:03;;;;;;;14.77;5.88;;;0.10;93.50;;;;;;5077971;28;20036;-87
2021/03/05 22:51:29;;;;;;;10.00;4.63;;;0.10;93.10;;;;;;5077771;28;20463;-88
2021/03/05 22:53:54;;;;;;;13.65;5.32;;;0.10;93.30;;;;;;5077715;28;20028;-87
2021/03/05 22:56:20;;;;;;;8.52;4.22;;;0.00;93.30;;;;;;5076462;28;20016;-88
2021/03/05 22:59:10;;;;;;;9.23;4.57;;;0.00;93.30;;;;;;5076593;28;20485;-87
2021/03/05 23:01:36;;;;;;;17.35;5.63;;;0.10;93.20;;;;;;5076715;28;20029;-87
2021/03/05 23:04:02;;;;;;;11.07;4.63;;;0.10;93.20;;;;;;5076651;28;20035;-87
2021/03/05 23:06:29;;;;;;;8.10;3.88;;;0.10;93.20;;;;;;5076386;28;20138;-87
2021/03/05 23:08:54;;;;;;;8.93;4.82;;;0.00;92.90;;;;;;5076460;28;20032;-88
2021/03/05 23:11:20;;;;;;;7.07;4.00;;;0.00;93.00;;;;;;5076453;28;20024;-87
2021/03/05 23:13:46;;;;;;;7.20;4.40;;;0.00;92.90;;;;;;5077135;28;20049;-88
2021/03/05 23:16:12;;;;;;;9.43;3.92;;;0.00;93.00;;;;;;5076291;28;20387;-87
2021/03/05 23:18:38;;;;;;;6.82;3.65;;;0.10;93.10;;;;;;5077597;28;20020;-88
2021/03/05 23:21:04;;;;;;;8.85;4.65;;;0.10;93.10;;;;;;5076202;28;20016;-88
2021/03/05 23:23:32;;;;;;;10.05;4.38;;;0.10;92.70;;;;;;5093161;28;20039;-88
2021/03/05 23:25:57;;;;;;;6.38;3.38;;;0.00;92.60;;;;;;5084027;28;20031;-88
2021/03/05 23:28:26;;;;;;;8.63;4.03;;;0.10;92.80;;;;;;5077116;28;20074;-87
2021/03/05 23:30:51;;;;;;;7.00;3.50;;;0.10;92.80;;;;;;5076142;28;20466;-88
2021/03/05 23:33:17;;;;;;;6.25;3.58;;;0.20;92.70;;;;;;5075940;28;20032;-88
2021/03/05 23:35:43;;;;;;;9.98;4.05;;;0.20;92.60;;;;;;5077059;28;20524;-88
2021/03/05 23:38:11;;;;;;;17.02;7.07;;;0.30;92.70;;;;;;5075904;28;20043;-88
2021/03/05 23:40:38;;;;;;;12.75;6.07;;;0.20;92.70;;;;;;5076819;28;20347;-88
2021/03/05 23:43:05;;;;;;;13.80;5.90;;;0.20;92.80;;;;;;5075822;28;20521;-88
2021/03/05 23:45:36;;;;;;;7.60;4.25;;;0.20;92.80;;;;;;5075442;28;20024;-88
2021/03/05 23:48:03;;;;;;;10.32;4.47;;;0.20;92.10;;;;;;5092511;28;20029;-88
2021/03/05 23:50:29;;;;;;;6.25;3.67;;;0.20;92.50;;;;;;5075420;28;20024;-88
2021/03/05 23:52:55;;;;;;;5.93;3.22;;;0.30;92.50;;;;;;5075598;28;20029;-88
2021/03/05 23:55:22;;;;;;;4.90;3.60;;;0.40;92.50;;;;;;5075455;28;20028;-88
2021/03/05 23:57:48;;;;;;;6.95;3.75;;;0.30;92.40;;;;;;5076547;28;20032;-88
